sensor_id;sensor_type;location;lat;lon;timestamp;pressure;altitude;pressure_sealevel;temperature;humidity
9141;BME280;46330;50.822;7.126;2022-09-09T00:00:25;100258.16;;;16.77;88.21
9141;BME280;46330;50.822;7.126;2022-09-09T00:03:00;100253.50;;;16.64;88.03
9141;BME280;46330;50.822;7.126;2022-09-09T00:05:38;100250.16;;;16.61;88.47
9141;BME280;46330;50.822;7.126;2022-09-09T00:08:17;100250.38;;;16.56;88.34
9141;BME280;46330;50.822;7.126;2022-09-09T00:10:49;100259.66;;;16.65;88.15
9141;BME280;46330;50.822;7.126;2022-09-09T00:13:25;100250.75;;;16.66;88.43
9141;BME280;46330;50.822;7.126;2022-09-09T00:15:59;100258.00;;;16.62;88.20
9141;BME280;46330;50.822;7.126;2022-09-09T00:18:37;100242.38;;;16.58;88.36
9141;BME280;46330;50.822;7.126;2022-09-09T00:21:13;100245.22;;;16.53;88.54
9141;BME280;46330;50.822;7.126;2022-09-09T00:23:45;100243.53;;;16.52;88.79
9141;BME280;46330;50.822;7.126;2022-09-09T00:26:16;100241.09;;;16.48;88.97
9141;BME280;46330;50.822;7.126;2022-09-09T00:28:51;100242.25;;;16.42;89.03
9141;BME280;46330;50.822;7.126;2022-09-09T00:31:25;100242.25;;;16.42;88.57
9141;BME280;46330;50.822;7.126;2022-09-09T00:33:57;100238.06;;;16.38;88.80
9141;BME280;46330;50.822;7.126;2022-09-09T00:36:31;100248.06;;;16.32;89.37
9141;BME280;46330;50.822;7.126;2022-09-09T00:39:02;100245.41;;;16.32;89.66
9141;BME280;46330;50.822;7.126;2022-09-09T00:41:42;100240.22;;;16.30;90.24
9141;BME280;46330;50.822;7.126;2022-09-09T00:44:21;100241.59;;;16.20;90.37
9141;BME280;46330;50.822;7.126;2022-09-09T00:46:59;100241.59;;;16.20;90.55
9141;BME280;46330;50.822;7.126;2022-09-09T00:49:40;100238.81;;;16.23;90.67
9141;BME280;46330;50.822;7.126;2022-09-09T00:52:23;100239.81;;;16.21;90.49
9141;BME280;46330;50.822;7.126;2022-09-09T00:55:03;100246.81;;;16.22;90.97
9141;BME280;46330;50.822;7.126;2022-09-09T00:57:34;100237.75;;;16.27;91.62
9141;BME280;46330;50.822;7.126;2022-09-09T01:00:18;100245.56;;;16.29;91.42
9141;BME280;46330;50.822;7.126;2022-09-09T01:02:54;100259.31;;;16.35;91.66
9141;BME280;46330;50.822;7.126;2022-09-09T01:05:33;100255.16;;;16.31;92.61
9141;BME280;46330;50.822;7.126;2022-09-09T01:08:11;100256.44;;;16.23;91.60
9141;BME280;46330;50.822;7.126;2022-09-09T01:10:49;100254.66;;;16.23;91.66
9141;BME280;46330;50.822;7.126;2022-09-09T01:13:24;100255.81;;;16.18;92.20
9141;BME280;46330;50.822;7.126;2022-09-09T01:15:53;100245.97;;;16.21;92.06
9141;BME280;46330;50.822;7.126;2022-09-09T01:18:32;100247.88;;;16.18;92.31
9141;BME280;46330;50.822;7.126;2022-09-09T01:21:08;100247.88;;;16.18;92.48
9141;BME280;46330;50.822;7.126;2022-09-09T01:24:01;100253.47;;;16.11;92.79
9141;BME280;46330;50.822;7.126;2022-09-09T01:26:54;100244.63;;;16.12;92.84
9141;BME280;46330;50.822;7.126;2022-09-09T01:29:26;100246.41;;;16.12;92.08
9141;BME280;46330;50.822;7.126;2022-09-09T01:31:55;100247.31;;;16.11;92.69
9141;BME280;46330;50.822;7.126;2022-09-09T01:34:28;100251.69;;;16.12;92.39
9141;BME280;46330;50.822;7.126;2022-09-09T01:37:00;100247.25;;;16.12;92.52
9141;BME280;46330;50.822;7.126;2022-09-09T01:39:31;100251.59;;;16.13;93.12
9141;BME280;46330;50.822;7.126;2022-09-09T01:42:06;100245.47;;;16.13;92.35
9141;BME280;46330;50.822;7.126;2022-09-09T01:44:35;100243.69;;;16.13;92.39
9141;BME280;46330;50.822;7.126;2022-09-09T01:47:05;100246.31;;;16.13;92.41
9141;BME280;46330;50.822;7.126;2022-09-09T01:49:39;100247.19;;;16.14;92.64
9141;BME280;46330;50.822;7.126;2022-09-09T01:52:17;100248.81;;;16.17;92.25
9141;BME280;46330;50.822;7.126;2022-09-09T01:54:45;100247.94;;;16.16;91.95
9141;BME280;46330;50.822;7.126;2022-09-09T01:57:23;100252.25;;;16.19;92.09
9141;BME280;46330;50.822;7.126;2022-09-09T02:00:01;100249.59;;;16.19;91.93
9141;BME280;46330;50.822;7.126;2022-09-09T02:02:44;100247.75;;;16.21;92.10
9141;BME280;46330;50.822;7.126;2022-09-09T02:05:28;100240.59;;;16.23;91.76
9141;BME280;46330;50.822;7.126;2022-09-09T02:08:05;100255.22;;;16.30;92.06
9141;BME280;46330;50.822;7.126;2022-09-09T02:10:58;100252.72;;;16.27;91.89
9141;BME280;46330;50.822;7.126;2022-09-09T02:13:57;100252.56;;;16.30;91.59
9141;BME280;46330;50.822;7.126;2022-09-09T02:16:30;100255.81;;;16.35;92.63
9141;BME280;46330;50.822;7.126;2022-09-09T02:19:04;100248.91;;;16.32;92.35
9141;BME280;46330;50.822;7.126;2022-09-09T02:21:45;100256.69;;;16.35;92.82
9141;BME280;46330;50.822;7.126;2022-09-09T02:24:15;100248.84;;;16.34;93.06
9141;BME280;46330;50.822;7.126;2022-09-09T02:26:52;100247.28;;;16.30;91.51
9141;BME280;46330;50.822;7.126;2022-09-09T02:29:25;100244.88;;;16.25;91.62
9141;BME280;46330;50.822;7.126;2022-09-09T02:31:55;100247.28;;;16.30;92.06
9141;BME280;46330;50.822;7.126;2022-09-09T02:34:31;100248.16;;;16.30;91.86
9141;BME280;46330;50.822;7.126;2022-09-09T02:37:02;100256.13;;;16.29;91.82
9141;BME280;46330;50.822;7.126;2022-09-09T02:39:32;100251.00;;;16.26;91.09
9141;BME280;46330;50.822;7.126;2022-09-09T02:42:01;100251.78;;;16.28;90.67
9141;BME280;46330;50.822;7.126;2022-09-09T02:44:34;100242.94;;;16.29;90.74
9141;BME280;46330;50.822;7.126;2022-09-09T02:47:16;100245.41;;;16.32;90.95
9141;BME280;46330;50.822;7.126;2022-09-09T02:49:57;100242.78;;;16.32;90.41
9141;BME280;46330;50.822;7.126;2022-09-09T02:52:33;100235.56;;;16.35;90.78
9141;BME280;46330;50.822;7.126;2022-09-09T02:55:09;100242.78;;;16.32;90.29
9141;BME280;46330;50.822;7.126;2022-09-09T02:57:40;100234.72;;;16.35;90.72
9141;BME280;46330;50.822;7.126;2022-09-09T03:00:11;100230.28;;;16.35;90.00
9141;BME280;46330;50.822;7.126;2022-09-09T03:02:39;100225.09;;;16.34;90.44
9141;BME280;46330;50.822;7.126;2022-09-09T03:05:08;100231.16;;;16.36;90.10
9141;BME280;46330;50.822;7.126;2022-09-09T03:07:36;100234.66;;;16.36;89.96
9141;BME280;46330;50.822;7.126;2022-09-09T03:10:08;100233.72;;;16.37;90.96
9141;BME280;46330;50.822;7.126;2022-09-09T03:12:37;100234.56;;;16.38;89.83
9141;BME280;46330;50.822;7.126;2022-09-09T03:15:06;100231.00;;;16.39;90.75
9141;BME280;46330;50.822;7.126;2022-09-09T03:17:37;100234.56;;;16.38;90.83
9141;BME280;46330;50.822;7.126;2022-09-09T03:20:05;100225.88;;;16.36;90.09
9141;BME280;46330;50.822;7.126;2022-09-09T03:22:36;100225.97;;;16.34;90.13
9141;BME280;46330;50.822;7.126;2022-09-09T03:25:04;100227.75;;;16.34;90.41
9141;BME280;46330;50.822;7.126;2022-09-09T03:27:35;100220.03;;;16.29;90.49
9141;BME280;46330;50.822;7.126;2022-09-09T03:30:04;100221.75;;;16.30;90.71
9141;BME280;46330;50.822;7.126;2022-09-09T03:32:32;100228.81;;;16.30;90.49
9141;BME280;46330;50.822;7.126;2022-09-09T03:35:02;100222.69;;;16.29;90.80
9141;BME280;46330;50.822;7.126;2022-09-09T03:37:31;100238.50;;;16.29;91.05
9141;BME280;46330;50.822;7.126;2022-09-09T03:39:59;100227.03;;;16.30;91.30
9141;BME280;46330;50.822;7.126;2022-09-09T03:42:28;100234.09;;;16.30;90.39
9141;BME280;46330;50.822;7.126;2022-09-09T03:44:56;100233.03;;;16.34;90.80
9141;BME280;46330;50.822;7.126;2022-09-09T03:47:26;100240.22;;;16.30;90.50
9141;BME280;46330;50.822;7.126;2022-09-09T03:50:03;100233.94;;;16.33;89.67
9141;BME280;46330;50.822;7.126;2022-09-09T03:52:36;100235.09;;;16.27;90.43
9141;BME280;46330;50.822;7.126;2022-09-09T03:55:08;100232.22;;;16.32;90.23
9141;BME280;46330;50.822;7.126;2022-09-09T03:57:36;100220.03;;;16.29;89.65
9141;BME280;46330;50.822;7.126;2022-09-09T04:00:08;100225.09;;;16.34;89.58
9141;BME280;46330;50.822;7.126;2022-09-09T04:02:43;100229.53;;;16.33;89.68
9141;BME280;46330;50.822;7.126;2022-09-09T04:05:16;100227.94;;;16.29;90.23
9141;BME280;46330;50.822;7.126;2022-09-09T04:07:45;100222.53;;;16.32;90.14
9141;BME280;46330;50.822;7.126;2022-09-09T04:10:13;100215.56;;;16.31;90.31
9141;BME280;46330;50.822;7.126;2022-09-09T04:12:42;100218.19;;;16.31;90.63
9141;BME280;46330;50.822;7.126;2022-09-09T04:15:15;100217.47;;;16.28;90.47
9141;BME280;46330;50.822;7.126;2022-09-09T04:17:45;100216.31;;;16.33;89.92
9141;BME280;46330;50.822;7.126;2022-09-09T04:20:13;100216.53;;;16.29;90.79
9141;BME280;46330;50.822;7.126;2022-09-09T04:22:42;100219.81;;;16.34;90.46
9141;BME280;46330;50.822;7.126;2022-09-09T04:25:11;100219.81;;;16.34;90.18
9141;BME280;46330;50.822;7.126;2022-09-09T04:27:39;100225.16;;;16.32;90.29
9141;BME280;46330;50.822;7.126;2022-09-09T04:30:09;100222.47;;;16.34;89.88
9141;BME280;46330;50.822;7.126;2022-09-09T04:32:37;100235.66;;;16.34;90.34
9141;BME280;46330;50.822;7.126;2022-09-09T04:35:05;100238.22;;;16.35;90.64
9141;BME280;46330;50.822;7.126;2022-09-09T04:37:33;100230.38;;;16.34;90.68
9141;BME280;46330;50.822;7.126;2022-09-09T04:40:04;100240.06;;;16.33;90.75
9141;BME280;46330;50.822;7.126;2022-09-09T04:42:34;100246.13;;;16.35;90.06
9141;BME280;46330;50.822;7.126;2022-09-09T04:45:03;100235.66;;;16.34;90.29
9141;BME280;46330;50.822;7.126;2022-09-09T04:47:31;100242.78;;;16.32;90.50
9141;BME280;46330;50.822;7.126;2022-09-09T04:49:59;100254.13;;;16.34;89.85
9141;BME280;46330;50.822;7.126;2022-09-09T04:52:27;100248.00;;;16.33;90.19
9141;BME280;46330;50.822;7.126;2022-09-09T04:54:55;100247.06;;;16.34;90.26
9141;BME280;46330;50.822;7.126;2022-09-09T04:57:24;100256.84;;;16.32;90.29
9141;BME280;46330;50.822;7.126;2022-09-09T04:59:52;100254.34;;;16.29;90.13
9141;BME280;46330;50.822;7.126;2022-09-09T05:02:20;100254.44;;;16.28;90.36
9141;BME280;46330;50.822;7.126;2022-09-09T05:04:49;100251.66;;;16.31;90.54
9141;BME280;46330;50.822;7.126;2022-09-09T05:07:17;100248.06;;;16.32;90.49
9141;BME280;46330;50.822;7.126;2022-09-09T05:09:45;100258.72;;;16.30;90.13
9141;BME280;46330;50.822;7.126;2022-09-09T05:12:15;100250.84;;;16.29;90.03
9141;BME280;46330;50.822;7.126;2022-09-09T05:14:50;100249.22;;;16.26;90.11
9141;BME280;46330;50.822;7.126;2022-09-09T05:17:19;100246.53;;;16.28;90.29
9141;BME280;46330;50.822;7.126;2022-09-09T05:19:47;100246.44;;;16.29;89.76
9141;BME280;46330;50.822;7.126;2022-09-09T05:22:18;100259.78;;;16.26;89.80
9141;BME280;46330;50.822;7.126;2022-09-09T05:24:47;100253.56;;;16.27;88.91
9141;BME280;46330;50.822;7.126;2022-09-09T05:27:17;100247.22;;;16.31;89.10
9141;BME280;46330;50.822;7.126;2022-09-09T05:29:47;100243.72;;;16.31;88.36
9141;BME280;46330;50.822;7.126;2022-09-09T05:32:16;100240.63;;;16.40;87.72
9141;BME280;46330;50.822;7.126;2022-09-09T05:34:47;100250.47;;;16.36;87.06
9141;BME280;46330;50.822;7.126;2022-09-09T05:37:15;100251.25;;;16.38;86.54
9141;BME280;46330;50.822;7.126;2022-09-09T05:39:44;100250.53;;;16.35;86.17
9141;BME280;46330;50.822;7.126;2022-09-09T05:42:12;100253.91;;;16.38;86.25
9141;BME280;46330;50.822;7.126;2022-09-09T05:44:39;100257.34;;;16.40;86.72
9141;BME280;46330;50.822;7.126;2022-09-09T05:47:09;100253.84;;;16.40;85.92
9141;BME280;46330;50.822;7.126;2022-09-09T05:49:39;100244.97;;;16.41;85.91
9141;BME280;46330;50.822;7.126;2022-09-09T05:52:07;100254.44;;;16.45;85.30
9141;BME280;46330;50.822;7.126;2022-09-09T05:54:36;100250.94;;;16.44;84.66
9141;BME280;46330;50.822;7.126;2022-09-09T05:57:04;100249.81;;;16.50;84.88
9141;BME280;46330;50.822;7.126;2022-09-09T05:59:32;100248.88;;;16.51;84.97
9141;BME280;46330;50.822;7.126;2022-09-09T06:02:01;100258.38;;;16.55;84.40
9141;BME280;46330;50.822;7.126;2022-09-09T06:04:33;100253.22;;;16.52;84.53
9141;BME280;46330;50.822;7.126;2022-09-09T06:07:04;100254.72;;;16.57;84.29
9141;BME280;46330;50.822;7.126;2022-09-09T06:09:32;100257.22;;;16.60;83.78
9141;BME280;46330;50.822;7.126;2022-09-09T06:12:00;100263.34;;;16.61;83.73
9141;BME280;46330;50.822;7.126;2022-09-09T06:14:31;100256.84;;;16.68;83.63
9141;BME280;46330;50.822;7.126;2022-09-09T06:17:00;100255.53;;;16.77;83.77
9141;BME280;46330;50.822;7.126;2022-09-09T06:19:29;100261.34;;;16.83;82.86
9141;BME280;46330;50.822;7.126;2022-09-09T06:21:59;100254.50;;;16.96;82.40
9141;BME280;46330;50.822;7.126;2022-09-09T06:24:30;100253.00;;;17.08;82.07
9141;BME280;46330;50.822;7.126;2022-09-09T06:27:00;100255.00;;;17.20;81.61
9141;BME280;46330;50.822;7.126;2022-09-09T06:29:32;100250.00;;;17.31;80.71
9141;BME280;46330;50.822;7.126;2022-09-09T06:32:01;100246.56;;;17.46;80.08
9141;BME280;46330;50.822;7.126;2022-09-09T06:34:30;100253.88;;;17.58;79.20
9141;BME280;46330;50.822;7.126;2022-09-09T06:36:59;100253.91;;;18.05;76.56
9141;BME280;46330;50.822;7.126;2022-09-09T06:39:35;100257.09;;;18.57;75.24
9141;BME280;46330;50.822;7.126;2022-09-09T06:42:03;100262.16;;;19.20;71.45
9141;BME280;46330;50.822;7.126;2022-09-09T06:44:50;100258.72;;;19.04;71.72
9141;BME280;46330;50.822;7.126;2022-09-09T06:47:28;100255.13;;;18.45;73.88
9141;BME280;46330;50.822;7.126;2022-09-09T06:49:57;100254.66;;;18.07;74.89
9141;BME280;46330;50.822;7.126;2022-09-09T06:52:25;100260.34;;;18.31;74.02
9141;BME280;46330;50.822;7.126;2022-09-09T06:54:56;100253.63;;;19.15;70.49
9141;BME280;46330;50.822;7.126;2022-09-09T06:57:25;100244.75;;;19.30;69.85
9141;BME280;46330;50.822;7.126;2022-09-09T07:00:07;100249.97;;;20.29;65.68
9141;BME280;46330;50.822;7.126;2022-09-09T07:02:35;100243.75;;;20.82;65.21
9141;BME280;46330;50.822;7.126;2022-09-09T07:05:08;100247.69;;;20.89;63.14
9141;BME280;46330;50.822;7.126;2022-09-09T07:07:37;100247.94;;;21.24;61.93
9141;BME280;46330;50.822;7.126;2022-09-09T07:10:07;100247.41;;;21.57;60.57
9141;BME280;46330;50.822;7.126;2022-09-09T07:12:36;100250.06;;;22.06;59.70
9141;BME280;46330;50.822;7.126;2022-09-09T07:15:09;100248.19;;;20.81;61.41
9141;BME280;46330;50.822;7.126;2022-09-09T07:17:40;100247.88;;;20.99;60.96
9141;BME280;46330;50.822;7.126;2022-09-09T07:20:09;100244.19;;;21.01;60.45
9141;BME280;46330;50.822;7.126;2022-09-09T07:22:37;100258.28;;;21.28;59.91
9141;BME280;46330;50.822;7.126;2022-09-09T07:25:08;100256.22;;;21.70;58.11
9141;BME280;46330;50.822;7.126;2022-09-09T07:27:36;100252.78;;;21.68;57.85
9141;BME280;46330;50.822;7.126;2022-09-09T07:30:06;100262.91;;;21.00;59.53
9141;BME280;46330;50.822;7.126;2022-09-09T07:32:35;100254.19;;;20.98;60.59
9141;BME280;46330;50.822;7.126;2022-09-09T07:35:03;100254.22;;;22.10;56.62
9141;BME280;46330;50.822;7.126;2022-09-09T07:37:31;100258.78;;;22.44;54.33
9141;BME280;46330;50.822;7.126;2022-09-09T07:39:59;100262.72;;;22.62;54.98
9141;BME280;46330;50.822;7.126;2022-09-09T07:42:30;100264.44;;;21.41;55.75
9141;BME280;46330;50.822;7.126;2022-09-09T07:44:58;100269.75;;;21.16;57.86
9141;BME280;46330;50.822;7.126;2022-09-09T07:47:26;100274.53;;;21.11;57.14
9141;BME280;46330;50.822;7.126;2022-09-09T07:49:54;100289.66;;;20.84;58.10
9141;BME280;46330;50.822;7.126;2022-09-09T07:52:26;100273.53;;;20.07;60.24
9141;BME280;46330;50.822;7.126;2022-09-09T07:54:59;100295.63;;;19.93;59.49
9141;BME280;46330;50.822;7.126;2022-09-09T07:57:31;100296.97;;;19.72;60.55
9141;BME280;46330;50.822;7.126;2022-09-09T07:59:58;100297.81;;;20.01;61.22
9141;BME280;46330;50.822;7.126;2022-09-09T08:02:27;100293.28;;;19.74;60.28
9141;BME280;46330;50.822;7.126;2022-09-09T08:04:56;100298.31;;;19.51;61.03
9141;BME280;46330;50.822;7.126;2022-09-09T08:07:24;100292.63;;;19.13;61.25
9141;BME280;46330;50.822;7.126;2022-09-09T08:09:53;100290.97;;;19.26;62.36
9141;BME280;46330;50.822;7.126;2022-09-09T08:12:26;100304.19;;;19.42;61.88
9141;BME280;46330;50.822;7.126;2022-09-09T08:14:56;100309.72;;;19.37;61.82
9141;BME280;46330;50.822;7.126;2022-09-09T08:17:28;100297.00;;;19.14;61.34
9141;BME280;46330;50.822;7.126;2022-09-09T08:19:58;100299.88;;;19.39;61.76
9141;BME280;46330;50.822;7.126;2022-09-09T08:22:30;100304.06;;;19.43;61.70
9141;BME280;46330;50.822;7.126;2022-09-09T08:24:58;100299.47;;;19.61;62.05
9141;BME280;46330;50.822;7.126;2022-09-09T08:27:26;100299.06;;;19.67;61.63
9141;BME280;46330;50.822;7.126;2022-09-09T08:29:56;100300.59;;;19.57;60.61
9141;BME280;46330;50.822;7.126;2022-09-09T08:32:24;100302.22;;;19.73;60.33
9141;BME280;46330;50.822;7.126;2022-09-09T08:34:53;100297.38;;;19.52;59.93
9141;BME280;46330;50.822;7.126;2022-09-09T08:37:28;100304.09;;;19.85;59.41
9141;BME280;46330;50.822;7.126;2022-09-09T08:39:56;100297.88;;;19.99;59.56
9141;BME280;46330;50.822;7.126;2022-09-09T08:42:32;100292.97;;;19.93;58.55
9141;BME280;46330;50.822;7.126;2022-09-09T08:45:19;100294.41;;;19.84;59.25
9141;BME280;46330;50.822;7.126;2022-09-09T08:47:59;100292.81;;;19.82;58.99
9141;BME280;46330;50.822;7.126;2022-09-09T08:50:32;100286.06;;;19.62;58.53
9141;BME280;46330;50.822;7.126;2022-09-09T08:53:11;100289.75;;;19.74;57.71
9141;BME280;46330;50.822;7.126;2022-09-09T08:55:47;100286.72;;;19.94;57.76
9141;BME280;46330;50.822;7.126;2022-09-09T08:58:21;100288.97;;;20.00;57.01
9141;BME280;46330;50.822;7.126;2022-09-09T09:01:02;100297.38;;;20.21;55.88
9141;BME280;46330;50.822;7.126;2022-09-09T09:03:49;100298.34;;;20.20;56.14
9141;BME280;46330;50.822;7.126;2022-09-09T09:06:30;100300.03;;;20.35;56.28
9141;BME280;46330;50.822;7.126;2022-09-09T09:09:11;100302.84;;;19.91;55.10
9141;BME280;46330;50.822;7.126;2022-09-09T09:11:45;100302.31;;;20.27;55.19
9141;BME280;46330;50.822;7.126;2022-09-09T09:14:18;100298.78;;;20.41;54.79
9141;BME280;46330;50.822;7.126;2022-09-09T09:16:56;100298.97;;;21.04;54.15
9141;BME280;46330;50.822;7.126;2022-09-09T09:19:28;100298.47;;;21.24;53.86
9141;BME280;46330;50.822;7.126;2022-09-09T09:22:02;100297.44;;;21.14;53.04
9141;BME280;46330;50.822;7.126;2022-09-09T09:24:39;100299.25;;;20.86;54.23
9141;BME280;46330;50.822;7.126;2022-09-09T09:27:13;100303.34;;;21.05;53.85
9141;BME280;46330;50.822;7.126;2022-09-09T09:29:48;100300.03;;;21.01;54.30
9141;BME280;46330;50.822;7.126;2022-09-09T09:32:39;100304.72;;;20.71;53.74
9141;BME280;46330;50.822;7.126;2022-09-09T09:35:11;100302.78;;;20.19;54.97
9141;BME280;46330;50.822;7.126;2022-09-09T09:37:41;100320.84;;;20.00;55.11
9141;BME280;46330;50.822;7.126;2022-09-09T09:40:33;100321.59;;;20.16;55.93
9141;BME280;46330;50.822;7.126;2022-09-09T09:43:03;100312.09;;;20.12;53.80
9141;BME280;46330;50.822;7.126;2022-09-09T09:45:41;100310.38;;;20.25;54.80
9141;BME280;46330;50.822;7.126;2022-09-09T09:48:32;100316.34;;;20.70;54.71
9141;BME280;46330;50.822;7.126;2022-09-09T09:51:09;100308.25;;;20.71;52.41
9141;BME280;46330;50.822;7.126;2022-09-09T09:53:40;100305.28;;;20.76;52.47
9141;BME280;46330;50.822;7.126;2022-09-09T09:56:12;100309.59;;;20.52;52.13
9141;BME280;46330;50.822;7.126;2022-09-09T09:58:50;100307.59;;;20.68;52.83
9141;BME280;46330;50.822;7.126;2022-09-09T10:01:24;100307.28;;;20.46;52.55
9141;BME280;46330;50.822;7.126;2022-09-09T10:03:58;100307.63;;;20.80;51.76
9141;BME280;46330;50.822;7.126;2022-09-09T10:06:30;100305.53;;;21.50;51.12
9141;BME280;46330;50.822;7.126;2022-09-09T10:08:59;100301.19;;;22.11;50.03
9141;BME280;46330;50.822;7.126;2022-09-09T10:11:40;100314.47;;;22.60;47.55
9141;BME280;46330;50.822;7.126;2022-09-09T10:14:15;100300.66;;;22.78;47.26
9141;BME280;46330;50.822;7.126;2022-09-09T10:16:56;100310.06;;;21.98;47.29
9141;BME280;46330;50.822;7.126;2022-09-09T10:19:32;100299.75;;;21.81;48.52
9141;BME280;46330;50.822;7.126;2022-09-09T10:22:07;100300.28;;;21.61;49.48
9141;BME280;46330;50.822;7.126;2022-09-09T10:27:48;100302.34;;;21.20;49.74
9141;BME280;46330;50.822;7.126;2022-09-09T10:30:30;100305.00;;;20.93;51.54
9141;BME280;46330;50.822;7.126;2022-09-09T10:33:08;100306.47;;;20.84;51.80
9141;BME280;46330;50.822;7.126;2022-09-09T10:35:44;100296.38;;;20.89;52.45
9141;BME280;46330;50.822;7.126;2022-09-09T10:38:20;100305.22;;;20.51;52.33
9141;BME280;46330;50.822;7.126;2022-09-09T10:41:10;100297.66;;;20.84;51.78
9141;BME280;46330;50.822;7.126;2022-09-09T10:43:50;100294.88;;;21.12;51.32
9141;BME280;46330;50.822;7.126;2022-09-09T10:46:31;100297.44;;;20.87;51.56
9141;BME280;46330;50.822;7.126;2022-09-09T10:49:13;100292.50;;;21.08;51.52
9141;BME280;46330;50.822;7.126;2022-09-09T10:51:57;100286.28;;;20.82;51.75
9141;BME280;46330;50.822;7.126;2022-09-09T10:54:39;100297.34;;;20.88;51.50
9141;BME280;46330;50.822;7.126;2022-09-09T10:57:17;100285.19;;;21.24;51.16
9141;BME280;46330;50.822;7.126;2022-09-09T10:59:50;100278.13;;;21.73;50.16
9141;BME280;46330;50.822;7.126;2022-09-09T11:02:27;100280.25;;;22.06;48.65
9141;BME280;46330;50.822;7.126;2022-09-09T11:04:58;100280.38;;;21.79;49.55
9141;BME280;46330;50.822;7.126;2022-09-09T11:07:34;100280.97;;;22.08;48.86
9141;BME280;46330;50.822;7.126;2022-09-09T11:10:11;100281.91;;;22.91;48.07
9141;BME280;46330;50.822;7.126;2022-09-09T11:12:46;100274.47;;;22.83;47.39
9141;BME280;46330;50.822;7.126;2022-09-09T11:15:20;100269.22;;;23.17;45.42
9141;BME280;46330;50.822;7.126;2022-09-09T11:17:53;100261.81;;;23.66;44.72
9141;BME280;46330;50.822;7.126;2022-09-09T11:20:23;100266.97;;;23.34;45.38
9141;BME280;46330;50.822;7.126;2022-09-09T11:22:56;100266.13;;;22.64;46.06
9141;BME280;46330;50.822;7.126;2022-09-09T11:25:31;100257.69;;;22.46;46.73
9141;BME280;46330;50.822;7.126;2022-09-09T11:28:22;100259.94;;;22.87;46.36
9141;BME280;46330;50.822;7.126;2022-09-09T11:31:02;100264.16;;;22.31;46.27
9141;BME280;46330;50.822;7.126;2022-09-09T11:33:58;100265.66;;;21.86;47.22
9141;BME280;46330;50.822;7.126;2022-09-09T11:36:59;100265.69;;;21.49;47.61
9141;BME280;46330;50.822;7.126;2022-09-09T11:39:44;100261.31;;;21.98;47.76
9141;BME280;46330;50.822;7.126;2022-09-09T11:42:19;100258.56;;;22.11;47.73
9141;BME280;46330;50.822;7.126;2022-09-09T11:44:47;100271.34;;;21.69;47.97
9141;BME280;46330;50.822;7.126;2022-09-09T11:47:24;100259.72;;;21.58;48.39
9141;BME280;46330;50.822;7.126;2022-09-09T11:50:10;100272.06;;;21.71;48.58
9141;BME280;46330;50.822;7.126;2022-09-09T11:53:04;100266.31;;;21.77;48.38
9141;BME280;46330;50.822;7.126;2022-09-09T11:55:35;100259.91;;;21.80;48.59
9141;BME280;46330;50.822;7.126;2022-09-09T11:58:04;100258.84;;;21.82;47.89
9141;BME280;46330;50.822;7.126;2022-09-09T12:00:36;100262.66;;;22.04;48.31
9141;BME280;46330;50.822;7.126;2022-09-09T12:03:05;100253.31;;;21.98;47.61
9141;BME280;46330;50.822;7.126;2022-09-09T12:05:37;100261.22;;;22.11;48.03
9141;BME280;46330;50.822;7.126;2022-09-09T12:08:09;100271.47;;;22.17;47.71
9141;BME280;46330;50.822;7.126;2022-09-09T12:10:40;100261.31;;;21.98;46.96
9141;BME280;46330;50.822;7.126;2022-09-09T12:13:15;100267.81;;;22.18;47.72
9141;BME280;46330;50.822;7.126;2022-09-09T12:15:47;100260.81;;;22.17;47.19
9141;BME280;46330;50.822;7.126;2022-09-09T12:18:22;100258.50;;;22.00;48.10
9141;BME280;46330;50.822;7.126;2022-09-09T12:20:57;100256.28;;;21.93;47.82
9141;BME280;46330;50.822;7.126;2022-09-09T12:23:35;100267.16;;;21.90;47.60
9141;BME280;46330;50.822;7.126;2022-09-09T12:26:28;100261.13;;;22.12;47.68
9141;BME280;46330;50.822;7.126;2022-09-09T12:29:06;100262.91;;;22.01;47.61
9141;BME280;46330;50.822;7.126;2022-09-09T12:31:42;100261.94;;;22.25;47.78
9141;BME280;46330;50.822;7.126;2022-09-09T12:34:15;100252.97;;;22.26;47.18
9141;BME280;46330;50.822;7.126;2022-09-09T12:36:46;100262.41;;;22.19;47.16
9141;BME280;46330;50.822;7.126;2022-09-09T12:39:24;100264.50;;;21.78;47.37
9141;BME280;46330;50.822;7.126;2022-09-09T12:41:57;100254.00;;;21.64;47.56
9141;BME280;46330;50.822;7.126;2022-09-09T12:44:26;100258.97;;;21.68;47.95
9141;BME280;46330;50.822;7.126;2022-09-09T12:46:56;100253.16;;;21.51;48.02
9141;BME280;46330;50.822;7.126;2022-09-09T12:49:30;100252.53;;;21.22;48.52
9141;BME280;46330;50.822;7.126;2022-09-09T12:52:02;100246.34;;;21.47;48.75
9141;BME280;46330;50.822;7.126;2022-09-09T12:54:33;100248.34;;;21.56;47.87
9141;BME280;46330;50.822;7.126;2022-09-09T12:57:04;100240.44;;;21.79;47.96
9141;BME280;46330;50.822;7.126;2022-09-09T12:59:37;100233.19;;;21.81;47.26
9141;BME280;46330;50.822;7.126;2022-09-09T13:02:16;100233.31;;;21.67;47.62
9141;BME280;46330;50.822;7.126;2022-09-09T13:04:46;100232.78;;;21.75;47.91
9141;BME280;46330;50.822;7.126;2022-09-09T13:07:14;100231.44;;;21.57;47.71
9141;BME280;46330;50.822;7.126;2022-09-09T13:09:43;100230.59;;;21.31;48.51
9141;BME280;46330;50.822;7.126;2022-09-09T13:12:15;100235.81;;;21.45;48.96
9141;BME280;46330;50.822;7.126;2022-09-09T13:14:45;100225.63;;;21.26;48.88
9141;BME280;46330;50.822;7.126;2022-09-09T13:17:20;100227.38;;;21.01;49.61
9141;BME280;46330;50.822;7.126;2022-09-09T13:19:48;100234.59;;;20.86;50.09
9141;BME280;46330;50.822;7.126;2022-09-09T13:22:22;100243.97;;;20.91;50.95
9141;BME280;46330;50.822;7.126;2022-09-09T13:24:59;100229.09;;;20.89;50.84
9141;BME280;46330;50.822;7.126;2022-09-09T13:27:32;100239.53;;;21.30;51.07
9141;BME280;46330;50.822;7.126;2022-09-09T13:30:01;100228.75;;;22.06;48.39
9141;BME280;46330;50.822;7.126;2022-09-09T13:32:29;100227.81;;;22.07;48.12
9141;BME280;46330;50.822;7.126;2022-09-09T13:34:58;100225.19;;;21.94;48.08